sensor_id;sensor_type;location;lat;lon;timestamp;temperature;humidity
26537;DHT22;14204;51.262;5.488;2024-02-04T00:00:30;11.90;99.90
26537;DHT22;14204;51.262;5.488;2024-02-04T00:02:56;11.90;99.90
26537;DHT22;14204;51.262;5.488;2024-02-04T00:05:22;11.90;99.90
26537;DHT22;14204;51.262;5.488;2024-02-04T00:07:48;11.80;99.90
26537;DHT22;14204;51.262;5.488;2024-02-04T00:10:14;11.90;99.90
26537;DHT22;14204;51.262;5.488;2024-02-04T00:12:41;11.90;99.90
26537;DHT22;14204;51.262;5.488;2024-02-04T00:15:07;11.90;99.90
26537;DHT22;14204;51.262;5.488;2024-02-04T00:17:33;11.90;99.90
26537;DHT22;14204;51.262;5.488;2024-02-04T00:20:03;11.90;99.90
26537;DHT22;14204;51.262;5.488;2024-02-04T00:22:31;11.80;99.90
26537;DHT22;14204;51.262;5.488;2024-02-04T00:24:59;11.90;99.90
26537;DHT22;14204;51.262;5.488;2024-02-04T00:27:30;11.90;99.90
26537;DHT22;14204;51.262;5.488;2024-02-04T00:29:57;11.90;99.90
26537;DHT22;14204;51.262;5.488;2024-02-04T00:32:23;11.80;99.90
26537;DHT22;14204;51.262;5.488;2024-02-04T00:34:54;11.80;99.90
26537;DHT22;14204;51.262;5.488;2024-02-04T00:37:20;11.80;99.90
26537;DHT22;14204;51.262;5.488;2024-02-04T00:39:46;11.80;99.90
26537;DHT22;14204;51.262;5.488;2024-02-04T00:42:11;11.80;99.90
26537;DHT22;14204;51.262;5.488;2024-02-04T00:44:37;11.80;99.90
26537;DHT22;14204;51.262;5.488;2024-02-04T00:47:03;11.80;99.90
26537;DHT22;14204;51.262;5.488;2024-02-04T00:49:28;11.80;99.90
26537;DHT22;14204;51.262;5.488;2024-02-04T00:51:54;11.90;99.90
26537;DHT22;14204;51.262;5.488;2024-02-04T00:54:20;11.80;99.90
26537;DHT22;14204;51.262;5.488;2024-02-04T00:56:46;11.90;99.90
26537;DHT22;14204;51.262;5.488;2024-02-04T00:59:11;11.90;99.90
26537;DHT22;14204;51.262;5.488;2024-02-04T01:01:38;11.90;99.90
26537;DHT22;14204;51.262;5.488;2024-02-04T01:04:04;11.90;99.90
26537;DHT22;14204;51.262;5.488;2024-02-04T01:06:30;11.90;99.90
26537;DHT22;14204;51.262;5.488;2024-02-04T01:08:58;11.90;99.90
26537;DHT22;14204;51.262;5.488;2024-02-04T01:11:24;11.90;99.90
26537;DHT22;14204;51.262;5.488;2024-02-04T01:13:50;11.80;99.90
26537;DHT22;14204;51.262;5.488;2024-02-04T01:16:15;11.90;99.90
26537;DHT22;14204;51.262;5.488;2024-02-04T01:18:41;11.90;99.90
26537;DHT22;14204;51.262;5.488;2024-02-04T01:21:07;11.90;99.90
26537;DHT22;14204;51.262;5.488;2024-02-04T01:23:34;12.00;99.90
26537;DHT22;14204;51.262;5.488;2024-02-04T01:26:00;12.00;99.90
26537;DHT22;14204;51.262;5.488;2024-02-04T01:28:26;12.00;99.90
26537;DHT22;14204;51.262;5.488;2024-02-04T01:30:52;12.00;99.90
26537;DHT22;14204;51.262;5.488;2024-02-04T01:33:17;12.00;99.90
26537;DHT22;14204;51.262;5.488;2024-02-04T01:35:43;12.00;99.90
26537;DHT22;14204;51.262;5.488;2024-02-04T01:38:09;12.00;99.90
26537;DHT22;14204;51.262;5.488;2024-02-04T01:40:35;12.00;99.90
26537;DHT22;14204;51.262;5.488;2024-02-04T01:43:01;12.00;99.90
26537;DHT22;14204;51.262;5.488;2024-02-04T01:45:27;12.00;99.90
26537;DHT22;14204;51.262;5.488;2024-02-04T01:47:53;12.00;99.90
26537;DHT22;14204;51.262;5.488;2024-02-04T01:50:19;12.00;99.90
26537;DHT22;14204;51.262;5.488;2024-02-04T01:52:46;12.00;99.90
26537;DHT22;14204;51.262;5.488;2024-02-04T01:55:12;12.00;99.90
26537;DHT22;14204;51.262;5.488;2024-02-04T01:57:39;12.00;99.90
26537;DHT22;14204;51.262;5.488;2024-02-04T02:00:05;12.00;99.90
26537;DHT22;14204;51.262;5.488;2024-02-04T02:02:33;11.90;99.90
26537;DHT22;14204;51.262;5.488;2024-02-04T02:04:59;11.90;99.90
26537;DHT22;14204;51.262;5.488;2024-02-04T02:07:25;12.00;99.90
26537;DHT22;14204;51.262;5.488;2024-02-04T02:09:53;12.00;99.90
26537;DHT22;14204;51.262;5.488;2024-02-04T02:12:39;12.00;99.90
26537;DHT22;14204;51.262;5.488;2024-02-04T02:15:11;12.10;99.90
26537;DHT22;14204;51.262;5.488;2024-02-04T02:18:01;12.10;99.90
26537;DHT22;14204;51.262;5.488;2024-02-04T02:20:38;12.10;99.90
26537;DHT22;14204;51.262;5.488;2024-02-04T02:23:10;12.10;99.90
26537;DHT22;14204;51.262;5.488;2024-02-04T02:25:38;12.10;99.90
26537;DHT22;14204;51.262;5.488;2024-02-04T02:28:04;12.10;99.90
26537;DHT22;14204;51.262;5.488;2024-02-04T02:30:30;12.20;99.90
26537;DHT22;14204;51.262;5.488;2024-02-04T02:32:56;12.20;99.90
26537;DHT22;14204;51.262;5.488;2024-02-04T02:35:23;12.20;99.90
26537;DHT22;14204;51.262;5.488;2024-02-04T02:40:45;12.30;99.90
26537;DHT22;14204;51.262;5.488;2024-02-04T02:43:11;12.30;99.90
26537;DHT22;14204;51.262;5.488;2024-02-04T02:45:40;12.30;99.90
26537;DHT22;14204;51.262;5.488;2024-02-04T02:48:31;12.30;99.90
26537;DHT22;14204;51.262;5.488;2024-02-04T02:50:57;12.20;99.90
26537;DHT22;14204;51.262;5.488;2024-02-04T02:53:23;12.30;99.90
26537;DHT22;14204;51.262;5.488;2024-02-04T02:55:49;12.30;99.90
26537;DHT22;14204;51.262;5.488;2024-02-04T02:58:15;12.20;99.90
26537;DHT22;14204;51.262;5.488;2024-02-04T03:00:40;12.20;99.90
26537;DHT22;14204;51.262;5.488;2024-02-04T03:03:06;12.20;99.90
26537;DHT22;14204;51.262;5.488;2024-02-04T03:05:32;12.20;99.90
26537;DHT22;14204;51.262;5.488;2024-02-04T03:07:58;12.10;99.90
26537;DHT22;14204;51.262;5.488;2024-02-04T03:10:24;12.10;99.90
26537;DHT22;14204;51.262;5.488;2024-02-04T03:12:50;12.20;99.90
26537;DHT22;14204;51.262;5.488;2024-02-04T03:15:16;12.30;99.90
26537;DHT22;14204;51.262;5.488;2024-02-04T03:17:42;12.20;99.90
26537;DHT22;14204;51.262;5.488;2024-02-04T03:20:09;12.30;99.90
26537;DHT22;14204;51.262;5.488;2024-02-04T03:22:35;12.30;99.90
26537;DHT22;14204;51.262;5.488;2024-02-04T03:25:01;12.30;99.90
26537;DHT22;14204;51.262;5.488;2024-02-04T03:27:26;12.30;99.90
26537;DHT22;14204;51.262;5.488;2024-02-04T03:29:52;12.30;99.90
26537;DHT22;14204;51.262;5.488;2024-02-04T03:32:18;12.20;99.90
26537;DHT22;14204;51.262;5.488;2024-02-04T03:34:44;12.30;99.90
26537;DHT22;14204;51.262;5.488;2024-02-04T03:37:10;12.30;99.90
26537;DHT22;14204;51.262;5.488;2024-02-04T03:39:35;12.30;99.90
26537;DHT22;14204;51.262;5.488;2024-02-04T03:42:01;12.30;99.90
26537;DHT22;14204;51.262;5.488;2024-02-04T03:44:27;12.30;99.90
26537;DHT22;14204;51.262;5.488;2024-02-04T03:46:52;12.20;99.90
26537;DHT22;14204;51.262;5.488;2024-02-04T03:49:19;12.20;99.90
26537;DHT22;14204;51.262;5.488;2024-02-04T03:51:45;12.10;99.90
26537;DHT22;14204;51.262;5.488;2024-02-04T03:54:11;12.10;99.90
26537;DHT22;14204;51.262;5.488;2024-02-04T03:56:37;12.10;99.90
26537;DHT22;14204;51.262;5.488;2024-02-04T03:59:02;12.10;99.90
26537;DHT22;14204;51.262;5.488;2024-02-04T04:01:28;12.10;99.90
26537;DHT22;14204;51.262;5.488;2024-02-04T04:03:54;12.10;99.90
26537;DHT22;14204;51.262;5.488;2024-02-04T04:06:20;12.10;99.90
26537;DHT22;14204;51.262;5.488;2024-02-04T04:08:45;12.10;99.90
26537;DHT22;14204;51.262;5.488;2024-02-04T04:11:11;12.10;99.90
26537;DHT22;14204;51.262;5.488;2024-02-04T04:13:37;12.20;99.90
26537;DHT22;14204;51.262;5.488;2024-02-04T04:16:04;12.20;99.90
26537;DHT22;14204;51.262;5.488;2024-02-04T04:18:30;12.20;99.90
26537;DHT22;14204;51.262;5.488;2024-02-04T04:20:56;12.10;99.90
26537;DHT22;14204;51.262;5.488;2024-02-04T04:23:22;12.10;99.90
26537;DHT22;14204;51.262;5.488;2024-02-04T04:25:47;12.10;99.90
26537;DHT22;14204;51.262;5.488;2024-02-04T04:28:13;12.20;99.90
26537;DHT22;14204;51.262;5.488;2024-02-04T04:30:38;12.20;99.90
26537;DHT22;14204;51.262;5.488;2024-02-04T04:33:04;12.20;99.90
26537;DHT22;14204;51.262;5.488;2024-02-04T04:35:31;12.20;99.90
26537;DHT22;14204;51.262;5.488;2024-02-04T04:37:57;12.20;99.90
26537;DHT22;14204;51.262;5.488;2024-02-04T04:40:23;12.20;99.90
26537;DHT22;14204;51.262;5.488;2024-02-04T04:42:49;12.20;99.90
26537;DHT22;14204;51.262;5.488;2024-02-04T04:45:15;12.20;99.90
26537;DHT22;14204;51.262;5.488;2024-02-04T04:47:41;12.20;99.90
26537;DHT22;14204;51.262;5.488;2024-02-04T04:50:07;12.20;99.90
26537;DHT22;14204;51.262;5.488;2024-02-04T04:52:32;12.10;99.90
26537;DHT22;14204;51.262;5.488;2024-02-04T04:54:58;12.10;99.90
26537;DHT22;14204;51.262;5.488;2024-02-04T04:57:24;12.10;99.90
26537;DHT22;14204;51.262;5.488;2024-02-04T04:59:50;12.10;99.90
26537;DHT22;14204;51.262;5.488;2024-02-04T05:02:17;12.10;99.90
26537;DHT22;14204;51.262;5.488;2024-02-04T05:04:43;12.20;99.90
26537;DHT22;14204;51.262;5.488;2024-02-04T05:07:10;12.10;99.90
26537;DHT22;14204;51.262;5.488;2024-02-04T05:09:36;12.10;99.90
26537;DHT22;14204;51.262;5.488;2024-02-04T05:12:03;12.10;99.90
26537;DHT22;14204;51.262;5.488;2024-02-04T05:14:28;12.10;99.90
26537;DHT22;14204;51.262;5.488;2024-02-04T05:16:54;12.10;99.90
26537;DHT22;14204;51.262;5.488;2024-02-04T05:19:20;12.10;99.90
26537;DHT22;14204;51.262;5.488;2024-02-04T05:21:46;12.20;99.90
26537;DHT22;14204;51.262;5.488;2024-02-04T05:24:12;12.20;99.90
26537;DHT22;14204;51.262;5.488;2024-02-04T05:26:37;12.20;99.90
26537;DHT22;14204;51.262;5.488;2024-02-04T05:29:03;12.10;99.90
26537;DHT22;14204;51.262;5.488;2024-02-04T05:31:29;12.10;99.90
26537;DHT22;14204;51.262;5.488;2024-02-04T05:33:56;12.20;99.90
26537;DHT22;14204;51.262;5.488;2024-02-04T05:36:21;12.10;99.90
26537;DHT22;14204;51.262;5.488;2024-02-04T05:38:47;12.10;99.90
26537;DHT22;14204;51.262;5.488;2024-02-04T05:41:13;12.10;99.90
26537;DHT22;14204;51.262;5.488;2024-02-04T05:43:39;12.00;99.90
26537;DHT22;14204;51.262;5.488;2024-02-04T05:46:04;12.00;99.90
26537;DHT22;14204;51.262;5.488;2024-02-04T05:48:30;12.10;99.90
26537;DHT22;14204;51.262;5.488;2024-02-04T05:50:56;12.10;99.90
26537;DHT22;14204;51.262;5.488;2024-02-04T05:53:22;11.90;99.90
26537;DHT22;14204;51.262;5.488;2024-02-04T05:55:47;12.00;99.90
26537;DHT22;14204;51.262;5.488;2024-02-04T05:58:13;12.00;99.90
26537;DHT22;14204;51.262;5.488;2024-02-04T06:00:40;12.00;99.90
26537;DHT22;14204;51.262;5.488;2024-02-04T06:03:06;12.00;99.90
26537;DHT22;14204;51.262;5.488;2024-02-04T06:05:32;12.00;99.90
26537;DHT22;14204;51.262;5.488;2024-02-04T06:07:58;12.00;99.90
26537;DHT22;14204;51.262;5.488;2024-02-04T06:10:23;12.10;99.90
26537;DHT22;14204;51.262;5.488;2024-02-04T06:12:49;12.00;99.90
26537;DHT22;14204;51.262;5.488;2024-02-04T06:15:15;12.00;99.90
26537;DHT22;14204;51.262;5.488;2024-02-04T06:17:41;12.10;99.90
26537;DHT22;14204;51.262;5.488;2024-02-04T06:20:08;12.10;99.90
26537;DHT22;14204;51.262;5.488;2024-02-04T06:22:34;12.10;99.90
26537;DHT22;14204;51.262;5.488;2024-02-04T06:25:01;12.00;99.90
26537;DHT22;14204;51.262;5.488;2024-02-04T06:27:27;12.00;99.90
26537;DHT22;14204;51.262;5.488;2024-02-04T06:29:53;12.10;99.90
26537;DHT22;14204;51.262;5.488;2024-02-04T06:32:18;12.00;99.90
26537;DHT22;14204;51.262;5.488;2024-02-04T06:34:47;12.10;99.90
26537;DHT22;14204;51.262;5.488;2024-02-04T06:37:13;12.10;99.90
26537;DHT22;14204;51.262;5.488;2024-02-04T06:39:39;12.10;99.90
26537;DHT22;14204;51.262;5.488;2024-02-04T06:42:05;12.10;99.90
26537;DHT22;14204;51.262;5.488;2024-02-04T06:44:30;12.00;99.90
26537;DHT22;14204;51.262;5.488;2024-02-04T06:46:56;12.00;99.90
26537;DHT22;14204;51.262;5.488;2024-02-04T06:49:22;12.00;99.90
26537;DHT22;14204;51.262;5.488;2024-02-04T06:51:47;12.00;99.90
26537;DHT22;14204;51.262;5.488;2024-02-04T06:54:16;12.00;99.90
26537;DHT22;14204;51.262;5.488;2024-02-04T06:56:42;12.10;99.90
26537;DHT22;14204;51.262;5.488;2024-02-04T06:59:07;12.00;99.90
26537;DHT22;14204;51.262;5.488;2024-02-04T07:01:33;12.00;99.90
26537;DHT22;14204;51.262;5.488;2024-02-04T07:03:59;12.00;99.90
26537;DHT22;14204;51.262;5.488;2024-02-04T07:06:25;12.00;99.90
26537;DHT22;14204;51.262;5.488;2024-02-04T07:08:51;12.00;99.90
26537;DHT22;14204;51.262;5.488;2024-02-04T07:11:16;12.00;99.90
26537;DHT22;14204;51.262;5.488;2024-02-04T07:13:42;11.90;99.90
26537;DHT22;14204;51.262;5.488;2024-02-04T07:16:08;12.10;99.90
26537;DHT22;14204;51.262;5.488;2024-02-04T07:18:34;12.00;99.90
26537;DHT22;14204;51.262;5.488;2024-02-04T07:21:00;11.90;99.90
26537;DHT22;14204;51.262;5.488;2024-02-04T07:23:25;11.90;99.90
26537;DHT22;14204;51.262;5.488;2024-02-04T07:25:51;11.90;99.90
26537;DHT22;14204;51.262;5.488;2024-02-04T07:28:17;11.80;99.90
26537;DHT22;14204;51.262;5.488;2024-02-04T07:30:42;11.80;99.90
26537;DHT22;14204;51.262;5.488;2024-02-04T07:33:08;11.80;99.90
26537;DHT22;14204;51.262;5.488;2024-02-04T07:35:34;11.80;99.90
26537;DHT22;14204;51.262;5.488;2024-02-04T07:37:59;11.80;99.90
26537;DHT22;14204;51.262;5.488;2024-02-04T07:40:26;11.80;99.90
26537;DHT22;14204;51.262;5.488;2024-02-04T07:42:53;11.90;99.90
26537;DHT22;14204;51.262;5.488;2024-02-04T07:45:20;11.90;99.90
26537;DHT22;14204;51.262;5.488;2024-02-04T07:47:45;11.90;99.90
26537;DHT22;14204;51.262;5.488;2024-02-04T07:50:12;11.90;99.90
26537;DHT22;14204;51.262;5.488;2024-02-04T07:52:38;11.90;99.90
26537;DHT22;14204;51.262;5.488;2024-02-04T07:55:04;11.90;99.90
26537;DHT22;14204;51.262;5.488;2024-02-04T07:57:29;12.00;99.90
26537;DHT22;14204;51.262;5.488;2024-02-04T07:59:55;12.00;99.90
26537;DHT22;14204;51.262;5.488;2024-02-04T08:02:21;12.00;99.90
26537;DHT22;14204;51.262;5.488;2024-02-04T08:04:46;12.00;99.90
26537;DHT22;14204;51.262;5.488;2024-02-04T08:07:12;12.00;99.90
26537;DHT22;14204;51.262;5.488;2024-02-04T08:09:38;12.10;99.90
26537;DHT22;14204;51.262;5.488;2024-02-04T08:12:04;12.00;99.90
26537;DHT22;14204;51.262;5.488;2024-02-04T08:14:30;12.10;99.90
26537;DHT22;14204;51.262;5.488;2024-02-04T08:16:55;12.00;99.90
26537;DHT22;14204;51.262;5.488;2024-02-04T08:19:21;12.00;99.90
26537;DHT22;14204;51.262;5.488;2024-02-04T08:21:47;11.90;99.90
26537;DHT22;14204;51.262;5.488;2024-02-04T08:24:13;12.00;99.90
26537;DHT22;14204;51.262;5.488;2024-02-04T08:26:38;12.00;99.90
26537;DHT22;14204;51.262;5.488;2024-02-04T08:29:04;12.10;99.90
26537;DHT22;14204;51.262;5.488;2024-02-04T08:31:32;12.00;99.90
26537;DHT22;14204;51.262;5.488;2024-02-04T08:33:59;12.10;99.90
26537;DHT22;14204;51.262;5.488;2024-02-04T08:36:24;12.10;99.90
26537;DHT22;14204;51.262;5.488;2024-02-04T08:38:50;12.10;99.90
26537;DHT22;14204;51.262;5.488;2024-02-04T08:41:16;12.20;99.90
26537;DHT22;14204;51.262;5.488;2024-02-04T08:43:42;12.10;99.90
26537;DHT22;14204;51.262;5.488;2024-02-04T08:46:07;12.10;99.90
26537;DHT22;14204;51.262;5.488;2024-02-04T08:48:33;12.20;99.90
26537;DHT22;14204;51.262;5.488;2024-02-04T08:50:59;12.20;99.90
26537;DHT22;14204;51.262;5.488;2024-02-04T08:53:25;12.20;99.90
26537;DHT22;14204;51.262;5.488;2024-02-04T08:55:51;12.20;99.90
26537;DHT22;14204;51.262;5.488;2024-02-04T08:58:16;12.20;99.90
26537;DHT22;14204;51.262;5.488;2024-02-04T09:00:42;12.20;99.90
26537;DHT22;14204;51.262;5.488;2024-02-04T09:03:08;12.20;99.90
26537;DHT22;14204;51.262;5.488;2024-02-04T09:05:33;12.30;99.90
26537;DHT22;14204;51.262;5.488;2024-02-04T09:07:59;12.30;99.90
26537;DHT22;14204;51.262;5.488;2024-02-04T09:10:26;12.30;99.90
26537;DHT22;14204;51.262;5.488;2024-02-04T09:12:52;12.30;99.90
26537;DHT22;14204;51.262;5.488;2024-02-04T09:15:18;12.20;99.90
26537;DHT22;14204;51.262;5.488;2024-02-04T09:17:44;12.20;99.90
26537;DHT22;14204;51.262;5.488;2024-02-04T09:20:10;12.20;99.90
26537;DHT22;14204;51.262;5.488;2024-02-04T09:22:36;12.20;99.90
26537;DHT22;14204;51.262;5.488;2024-02-04T09:25:01;12.20;99.90
26537;DHT22;14204;51.262;5.488;2024-02-04T09:27:27;12.10;99.90
26537;DHT22;14204;51.262;5.488;2024-02-04T09:29:53;12.10;99.90
26537;DHT22;14204;51.262;5.488;2024-02-04T09:32:20;12.20;99.90
26537;DHT22;14204;51.262;5.488;2024-02-04T09:34:46;12.10;99.90
26537;DHT22;14204;51.262;5.488;2024-02-04T09:37:12;12.10;99.90
26537;DHT22;14204;51.262;5.488;2024-02-04T09:39:38;12.20;99.90
26537;DHT22;14204;51.262;5.488;2024-02-04T09:42:03;12.10;99.90
26537;DHT22;14204;51.262;5.488;2024-02-04T09:44:30;12.10;99.90
26537;DHT22;14204;51.262;5.488;2024-02-04T09:46:57;12.10;99.90
26537;DHT22;14204;51.262;5.488;2024-02-04T09:49:27;12.10;99.90
26537;DHT22;14204;51.262;5.488;2024-02-04T09:51:52;12.20;99.90
26537;DHT22;14204;51.262;5.488;2024-02-04T09:54:19;12.20;99.90
26537;DHT22;14204;51.262;5.488;2024-02-04T09:56:47;12.20;99.90
26537;DHT22;14204;51.262;5.488;2024-02-04T09:59:13;12.20;99.90
26537;DHT22;14204;51.262;5.488;2024-02-04T10:01:39;12.30;99.90
26537;DHT22;14204;51.262;5.488;2024-02-04T10:04:05;12.20;99.90
26537;DHT22;14204;51.262;5.488;2024-02-04T10:06:31;12.30;99.90
26537;DHT22;14204;51.262;5.488;2024-02-04T10:08:57;12.20;99.90
26537;DHT22;14204;51.262;5.488;2024-02-04T10:11:23;12.30;99.90
26537;DHT22;14204;51.262;5.488;2024-02-04T10:13:49;12.30;99.90
26537;DHT22;14204;51.262;5.488;2024-02-04T10:16:16;12.30;99.90
26537;DHT22;14204;51.262;5.488;2024-02-04T10:18:46;12.30;99.90
26537;DHT22;14204;51.262;5.488;2024-02-04T10:21:20;12.30;99.90
26537;DHT22;14204;51.262;5.488;2024-02-04T10:23:49;12.30;99.90
26537;DHT22;14204;51.262;5.488;2024-02-04T10:26:16;12.30;99.90
26537;DHT22;14204;51.262;5.488;2024-02-04T10:28:44;12.30;99.90
26537;DHT22;14204;51.262;5.488;2024-02-04T10:31:10;12.20;99.90
26537;DHT22;14204;51.262;5.488;2024-02-04T10:33:37;12.30;99.90
26537;DHT22;14204;51.262;5.488;2024-02-04T10:36:03;12.30;99.90
26537;DHT22;14204;51.262;5.488;2024-02-04T10:38:30;12.20;99.90
26537;DHT22;14204;51.262;5.488;2024-02-04T10:40:55;12.30;99.90
26537;DHT22;14204;51.262;5.488;2024-02-04T10:43:24;12.40;99.90
26537;DHT22;14204;51.262;5.488;2024-02-04T10:45:56;12.40;99.90
26537;DHT22;14204;51.262;5.488;2024-02-04T10:51:16;12.40;99.90
26537;DHT22;14204;51.262;5.488;2024-02-04T10:53:45;12.50;99.90
26537;DHT22;14204;51.262;5.488;2024-02-04T10:56:22;12.40;99.90
26537;DHT22;14204;51.262;5.488;2024-02-04T10:58:52;12.40;99.90
26537;DHT22;14204;51.262;5.488;2024-02-04T11:01:18;12.40;99.90
26537;DHT22;14204;51.262;5.488;2024-02-04T11:03:45;12.40;99.90
26537;DHT22;14204;51.262;5.488;2024-02-04T11:06:12;12.40;99.90
26537;DHT22;14204;51.262;5.488;2024-02-04T11:08:39;12.50;99.90
26537;DHT22;14204;51.262;5.488;2024-02-04T11:11:04;12.40;99.90
26537;DHT22;14204;51.262;5.488;2024-02-04T11:13:31;12.40;99.90
26537;DHT22;14204;51.262;5.488;2024-02-04T11:16:00;12.40;99.90
26537;DHT22;14204;51.262;5.488;2024-02-04T11:18:54;12.40;99.90
26537;DHT22;14204;51.262;5.488;2024-02-04T11:24:23;12.40;99.90
26537;DHT22;14204;51.262;5.488;2024-02-04T11:26:53;12.40;99.90
26537;DHT22;14204;51.262;5.488;2024-02-04T11:29:19;12.40;99.90
26537;DHT22;14204;51.262;5.488;2024-02-04T11:31:45;12.40;99.90
26537;DHT22;14204;51.262;5.488;2024-02-04T11:34:10;12.50;99.90
26537;DHT22;14204;51.262;5.488;2024-02-04T11:36:40;12.60;99.90
26537;DHT22;14204;51.262;5.488;2024-02-04T11:39:18;12.60;99.90
26537;DHT22;14204;51.262;5.488;2024-02-04T11:41:50;12.60;99.90
26537;DHT22;14204;51.262;5.488;2024-02-04T11:44:26;12.60;99.90
26537;DHT22;14204;51.262;5.488;2024-02-04T11:46:52;12.60;99.90
26537;DHT22;14204;51.262;5.488;2024-02-04T11:49:25;12.60;99.90
26537;DHT22;14204;51.262;5.488;2024-02-04T11:51:51;12.50;99.90
26537;DHT22;14204;51.262;5.488;2024-02-04T11:54:18;12.50;99.90
26537;DHT22;14204;51.262;5.488;2024-02-04T11:56:51;12.50;99.90
26537;DHT22;14204;51.262;5.488;2024-02-04T11:59:21;12.50;99.90
26537;DHT22;14204;51.262;5.488;2024-02-04T12:01:48;12.60;99.90
26537;DHT22;14204;51.262;5.488;2024-02-04T12:04:16;12.60;99.90
26537;DHT22;14204;51.262;5.488;2024-02-04T12:06:42;12.70;99.90
26537;DHT22;14204;51.262;5.488;2024-02-04T12:09:09;12.80;99.90
26537;DHT22;14204;51.262;5.488;2024-02-04T12:11:38;12.80;99.90
26537;DHT22;14204;51.262;5.488;2024-02-04T12:14:05;12.80;99.90
26537;DHT22;14204;51.262;5.488;2024-02-04T12:16:33;12.90;99.90
26537;DHT22;14204;51.262;5.488;2024-02-04T12:19:01;12.90;99.90
26537;DHT22;14204;51.262;5.488;2024-02-04T12:21:29;12.90;99.90
26537;DHT22;14204;51.262;5.488;2024-02-04T12:23:55;13.00;99.90
26537;DHT22;14204;51.262;5.488;2024-02-04T12:26:22;13.00;99.90
26537;DHT22;14204;51.262;5.488;2024-02-04T12:28:48;13.00;99.90
26537;DHT22;14204;51.262;5.488;2024-02-04T12:31:19;12.90;99.90
26537;DHT22;14204;51.262;5.488;2024-02-04T12:33:59;12.90;99.90
26537;DHT22;14204;51.262;5.488;2024-02-04T12:36:30;12.90;99.90
26537;DHT22;14204;51.262;5.488;2024-02-04T12:38:57;12.80;99.90
26537;DHT22;14204;51.262;5.488;2024-02-04T12:41:23;12.90;99.90
26537;DHT22;14204;51.262;5.488;2024-02-04T12:43:51;12.90;99.90
26537;DHT22;14204;51.262;5.488;2024-02-04T12:46:18;12.90;99.90
26537;DHT22;14204;51.262;5.488;2024-02-04T12:48:44;12.90;99.90
26537;DHT22;14204;51.262;5.488;2024-02-04T12:51:10;12.90;99.90
26537;DHT22;14204;51.262;5.488;2024-02-04T12:53:37;12.90;99.90
26537;DHT22;14204;51.262;5.488;2024-02-04T12:56:03;12.80;99.90
26537;DHT22;14204;51.262;5.488;2024-02-04T12:58:29;12.90;99.90
26537;DHT22;14204;51.262;5.488;2024-02-04T13:01:02;12.90;99.90
26537;DHT22;14204;51.262;5.488;2024-02-04T13:03:30;12.90;99.90
26537;DHT22;14204;51.262;5.488;2024-02-04T13:05:58;12.90;99.90
26537;DHT22;14204;51.262;5.488;2024-02-04T13:08:24;13.00;99.90
26537;DHT22;14204;51.262;5.488;2024-02-04T13:10:54;12.90;99.90
26537;DHT22;14204;51.262;5.488;2024-02-04T13:13:23;12.90;99.90
26537;DHT22;14204;51.262;5.488;2024-02-04T13:15:54;13.00;99.90
26537;DHT22;14204;51.262;5.488;2024-02-04T13:18:20;12.90;99.90
26537;DHT22;14204;51.262;5.488;2024-02-04T13:20:45;13.00;99.90
26537;DHT22;14204;51.262;5.488;2024-02-04T13:23:11;12.90;99.90
26537;DHT22;14204;51.262;5.488;2024-02-04T13:25:37;12.90;99.90
26537;DHT22;14204;51.262;5.488;2024-02-04T13:28:03;12.90;99.90
26537;DHT22;14204;51.262;5.488;2024-02-04T13:30:29;13.00;99.90
26537;DHT22;14204;51.262;5.488;2024-02-04T13:32:56;13.00;99.90
26537;DHT22;14204;51.262;5.488;2024-02-04T13:35:27;13.00;99.90
26537;DHT22;14204;51.262;5.488;2024-02-04T13:37:52;13.10;99.90
26537;DHT22;14204;51.262;5.488;2024-02-04T13:40:21;13.10;99.90
26537;DHT22;14204;51.262;5.488;2024-02-04T13:42:48;13.20;99.90
26537;DHT22;14204;51.262;5.488;2024-02-04T13:45:13;13.20;99.90
26537;DHT22;14204;51.262;5.488;2024-02-04T13:47:40;13.20;99.90
26537;DHT22;14204;51.262;5.488;2024-02-04T13:50:06;13.20;99.90
26537;DHT22;14204;51.262;5.488;2024-02-04T13:52:36;13.20;99.90
26537;DHT22;14204;51.262;5.488;2024-02-04T13:55:03;13.10;99.90
26537;DHT22;14204;51.262;5.488;2024-02-04T13:57:35;13.10;99.90
26537;DHT22;14204;51.262;5.488;2024-02-04T14:00:02;13.20;99.90
26537;DHT22;14204;51.262;5.488;2024-02-04T14:02:30;13.20;99.90
26537;DHT22;14204;51.262;5.488;2024-02-04T14:04:56;13.20;99.90
26537;DHT22;14204;51.262;5.488;2024-02-04T14:07:22;13.20;99.90
26537;DHT22;14204;51.262;5.488;2024-02-04T14:09:48;13.10;99.90
26537;DHT22;14204;51.262;5.488;2024-02-04T14:12:14;13.20;99.90
26537;DHT22;14204;51.262;5.488;2024-02-04T14:14:39;13.20;99.90
26537;DHT22;14204;51.262;5.488;2024-02-04T14:17:05;13.20;99.90
26537;DHT22;14204;51.262;5.488;2024-02-04T14:19:31;13.30;99.90
26537;DHT22;14204;51.262;5.488;2024-02-04T14:21:57;13.30;99.90
26537;DHT22;14204;51.262;5.488;2024-02-04T14:24:23;13.30;99.90
26537;DHT22;14204;51.262;5.488;2024-02-04T14:26:48;13.30;99.90
26537;DHT22;14204;51.262;5.488;2024-02-04T14:29:21;13.20;99.90
26537;DHT22;14204;51.262;5.488;2024-02-04T14:31:46;13.30;99.90
26537;DHT22;14204;51.262;5.488;2024-02-04T14:34:12;13.20;99.90
26537;DHT22;14204;51.262;5.488;2024-02-04T14:36:38;13.20;99.90
26537;DHT22;14204;51.262;5.488;2024-02-04T14:39:04;13.20;99.90
26537;DHT22;14204;51.262;5.488;2024-02-04T14:41:34;13.20;99.90
26537;DHT22;14204;51.262;5.488;2024-02-04T14:43:59;13.10;99.90
26537;DHT22;14204;51.262;5.488;2024-02-04T14:46:25;13.20;99.90
26537;DHT22;14204;51.262;5.488;2024-02-04T14:48:51;13.20;99.90
26537;DHT22;14204;51.262;5.488;2024-02-04T14:51:17;13.20;99.90
26537;DHT22;14204;51.262;5.488;2024-02-04T14:53:43;13.20;99.90
26537;DHT22;14204;51.262;5.488;2024-02-04T14:56:09;13.20;99.90
26537;DHT22;14204;51.262;5.488;2024-02-04T14:58:36;13.20;99.90
26537;DHT22;14204;51.262;5.488;2024-02-04T15:01:02;13.30;99.90
26537;DHT22;14204;51.262;5.488;2024-02-04T15:03:28;13.20;99.90
26537;DHT22;14204;51.262;5.488;2024-02-04T15:05:54;13.30;99.90
26537;DHT22;14204;51.262;5.488;2024-02-04T15:08:19;13.20;99.90
26537;DHT22;14204;51.262;5.488;2024-02-04T15:10:46;13.20;99.90
26537;DHT22;14204;51.262;5.488;2024-02-04T15:13:12;13.20;99.90
26537;DHT22;14204;51.262;5.488;2024-02-04T15:15:39;13.20;99.90
26537;DHT22;14204;51.262;5.488;2024-02-04T15:18:07;13.20;99.90
26537;DHT22;14204;51.262;5.488;2024-02-04T15:20:33;13.20;99.90
26537;DHT22;14204;51.262;5.488;2024-02-04T15:22:59;13.10;99.90
26537;DHT22;14204;51.262;5.488;2024-02-04T15:25:26;13.20;99.90
26537;DHT22;14204;51.262;5.488;2024-02-04T15:27:52;13.10;99.90
26537;DHT22;14204;51.262;5.488;2024-02-04T15:30:20;13.10;99.90
26537;DHT22;14204;51.262;5.488;2024-02-04T15:32:46;13.10;99.90
26537;DHT22;14204;51.262;5.488;2024-02-04T15:35:12;13.10;99.90